Round Pond, Maine
Current Conditions -  °F | °C
As of 5:53 PM on Wednesday 26 Nov 2014 (Local Time) from KIWI Reporting Station
Light Snow Light Snow  
Wind Chill: 27°   Ceiling: 600
Heat Index: 33°   Visibility: 0.75mi
Dew Point: 32°   Wind: 7mph
Humidity: 96%   Direction: 50°NE
Pressure: 30.01"   Gusts: NA
Location:  43.95°N, 69.46°W
Report Text: KIWI 262253Z AUTO 05006KT 3/4SM -SN BR VV006 01/00 A3001 RMK AO2 SLP164 P0012 T00060000
Loading
Personal Weather Stations






























Interactive Weather Map New forecast layout! Learn more

10-Day Weather Forecast

Advertisements
Track Severe Weather on mobile